sensor_id;sensor_type;location;lat;lon;timestamp;P1;durP1;ratioP1;P2;durP2;ratioP2
23804;SDS011;12083;52.098;7.582;2022-08-19T00:00:34;11.07;;;4.80;;
23804;SDS011;12083;52.098;7.582;2022-08-19T00:03:01;4.90;;;3.83;;
23804;SDS011;12083;52.098;7.582;2022-08-19T00:05:27;10.53;;;4.10;;
23804;SDS011;12083;52.098;7.582;2022-08-19T00:07:52;5.57;;;4.17;;
23804;SDS011;12083;52.098;7.582;2022-08-19T00:10:18;5.07;;;4.20;;
23804;SDS011;12083;52.098;7.582;2022-08-19T00:12:44;5.00;;;4.30;;
23804;SDS011;12083;52.098;7.582;2022-08-19T00:15:12;9.03;;;4.50;;
23804;SDS011;12083;52.098;7.582;2022-08-19T00:17:40;5.77;;;4.23;;
23804;SDS011;12083;52.098;7.582;2022-08-19T00:20:08;10.73;;;4.60;;
23804;SDS011;12083;52.098;7.582;2022-08-19T00:22:36;4.67;;;4.27;;
23804;SDS011;12083;52.098;7.582;2022-08-19T00:25:02;8.13;;;5.03;;
23804;SDS011;12083;52.098;7.582;2022-08-19T00:27:28;7.50;;;5.30;;
23804;SDS011;12083;52.098;7.582;2022-08-19T00:29:54;6.53;;;5.20;;
23804;SDS011;12083;52.098;7.582;2022-08-19T00:32:20;6.40;;;5.70;;
23804;SDS011;12083;52.098;7.582;2022-08-19T00:34:46;6.07;;;5.47;;
23804;SDS011;12083;52.098;7.582;2022-08-19T00:37:11;6.90;;;4.93;;
23804;SDS011;12083;52.098;7.582;2022-08-19T00:39:37;6.40;;;4.60;;
23804;SDS011;12083;52.098;7.582;2022-08-19T00:42:03;6.23;;;5.63;;
23804;SDS011;12083;52.098;7.582;2022-08-19T00:44:31;8.43;;;5.00;;
23804;SDS011;12083;52.098;7.582;2022-08-19T00:46:58;9.13;;;5.07;;
23804;SDS011;12083;52.098;7.582;2022-08-19T00:49:37;6.60;;;4.30;;
23804;SDS011;12083;52.098;7.582;2022-08-19T00:52:12;5.97;;;4.93;;
23804;SDS011;12083;52.098;7.582;2022-08-19T00:54:40;12.10;;;5.33;;
23804;SDS011;12083;52.098;7.582;2022-08-19T00:57:09;5.40;;;4.30;;
23804;SDS011;12083;52.098;7.582;2022-08-19T00:59:38;5.77;;;4.87;;
23804;SDS011;12083;52.098;7.582;2022-08-19T01:02:05;6.63;;;5.17;;
23804;SDS011;12083;52.098;7.582;2022-08-19T01:04:31;7.10;;;5.20;;
23804;SDS011;12083;52.098;7.582;2022-08-19T01:06:57;10.50;;;5.00;;
23804;SDS011;12083;52.098;7.582;2022-08-19T01:09:23;7.60;;;6.00;;
23804;SDS011;12083;52.098;7.582;2022-08-19T01:11:49;6.10;;;5.40;;
23804;SDS011;12083;52.098;7.582;2022-08-19T01:14:15;7.63;;;5.23;;
23804;SDS011;12083;52.098;7.582;2022-08-19T01:16:42;6.60;;;5.00;;
23804;SDS011;12083;52.098;7.582;2022-08-19T01:19:22;7.13;;;4.50;;
23804;SDS011;12083;52.098;7.582;2022-08-19T01:22:55;9.53;;;4.47;;
23804;SDS011;12083;52.098;7.582;2022-08-19T01:24:48;5.50;;;4.97;;
23804;SDS011;12083;52.098;7.582;2022-08-19T01:27:14;7.00;;;4.60;;
23804;SDS011;12083;52.098;7.582;2022-08-19T01:29:41;5.97;;;4.90;;
23804;SDS011;12083;52.098;7.582;2022-08-19T01:32:09;4.80;;;4.30;;
23804;SDS011;12083;52.098;7.582;2022-08-19T01:34:38;7.80;;;5.20;;
23804;SDS011;12083;52.098;7.582;2022-08-19T01:37:07;5.27;;;4.70;;
23804;SDS011;12083;52.098;7.582;2022-08-19T01:39:36;6.27;;;5.67;;
23804;SDS011;12083;52.098;7.582;2022-08-19T01:42:05;6.03;;;5.43;;
23804;SDS011;12083;52.098;7.582;2022-08-19T01:44:32;6.00;;;5.40;;
23804;SDS011;12083;52.098;7.582;2022-08-19T01:46:58;6.50;;;5.40;;
23804;SDS011;12083;52.098;7.582;2022-08-19T01:49:24;7.53;;;5.77;;
23804;SDS011;12083;52.098;7.582;2022-08-19T01:51:53;8.03;;;6.37;;
23804;SDS011;12083;52.098;7.582;2022-08-19T01:54:20;6.53;;;5.93;;
23804;SDS011;12083;52.098;7.582;2022-08-19T01:56:48;8.10;;;5.77;;
23804;SDS011;12083;52.098;7.582;2022-08-19T01:59:16;11.63;;;5.60;;
23804;SDS011;12083;52.098;7.582;2022-08-19T02:01:44;7.93;;;6.00;;
23804;SDS011;12083;52.098;7.582;2022-08-19T02:04:10;8.30;;;6.30;;
23804;SDS011;12083;52.098;7.582;2022-08-19T02:06:35;6.10;;;5.50;;
23804;SDS011;12083;52.098;7.582;2022-08-19T02:09:02;5.40;;;4.90;;
23804;SDS011;12083;52.098;7.582;2022-08-19T02:11:29;10.30;;;6.27;;
23804;SDS011;12083;52.098;7.582;2022-08-19T02:13:59;8.13;;;5.97;;
23804;SDS011;12083;52.098;7.582;2022-08-19T02:16:27;12.70;;;6.47;;
23804;SDS011;12083;52.098;7.582;2022-08-19T02:18:53;8.97;;;6.23;;
23804;SDS011;12083;52.098;7.582;2022-08-19T02:21:20;8.50;;;6.47;;
23804;SDS011;12083;52.098;7.582;2022-08-19T02:23:48;6.30;;;5.30;;
23804;SDS011;12083;52.098;7.582;2022-08-19T02:26:15;6.90;;;6.17;;
23804;SDS011;12083;52.098;7.582;2022-08-19T02:28:42;7.20;;;6.50;;
23804;SDS011;12083;52.098;7.582;2022-08-19T02:31:13;7.77;;;6.73;;
23804;SDS011;12083;52.098;7.582;2022-08-19T02:33:43;9.00;;;7.07;;
23804;SDS011;12083;52.098;7.582;2022-08-19T02:36:10;10.20;;;7.10;;
23804;SDS011;12083;52.098;7.582;2022-08-19T02:38:37;12.50;;;8.37;;
23804;SDS011;12083;52.098;7.582;2022-08-19T02:41:05;10.50;;;6.83;;
23804;SDS011;12083;52.098;7.582;2022-08-19T02:43:36;7.80;;;7.00;;
23804;SDS011;12083;52.098;7.582;2022-08-19T02:46:10;18.23;;;7.00;;
23804;SDS011;12083;52.098;7.582;2022-08-19T02:48:37;10.67;;;7.57;;
23804;SDS011;12083;52.098;7.582;2022-08-19T02:51:03;18.17;;;7.90;;
23804;SDS011;12083;52.098;7.582;2022-08-19T02:53:29;12.43;;;7.97;;
23804;SDS011;12083;52.098;7.582;2022-08-19T02:55:54;16.73;;;8.17;;
23804;SDS011;12083;52.098;7.582;2022-08-19T02:58:20;16.70;;;8.00;;
23804;SDS011;12083;52.098;7.582;2022-08-19T03:00:49;9.17;;;7.10;;
23804;SDS011;12083;52.098;7.582;2022-08-19T03:03:18;13.20;;;7.30;;
23804;SDS011;12083;52.098;7.582;2022-08-19T03:05:44;10.83;;;7.73;;
23804;SDS011;12083;52.098;7.582;2022-08-19T03:08:11;18.70;;;7.73;;
23804;SDS011;12083;52.098;7.582;2022-08-19T03:10:44;8.67;;;7.67;;
23804;SDS011;12083;52.098;7.582;2022-08-19T03:13:16;8.10;;;6.93;;
23804;SDS011;12083;52.098;7.582;2022-08-19T03:15:43;10.47;;;9.17;;
23804;SDS011;12083;52.098;7.582;2022-08-19T03:18:10;12.03;;;7.97;;
23804;SDS011;12083;52.098;7.582;2022-08-19T03:20:43;12.03;;;8.83;;
23804;SDS011;12083;52.098;7.582;2022-08-19T03:23:11;11.10;;;8.37;;
23804;SDS011;12083;52.098;7.582;2022-08-19T03:25:41;14.50;;;10.20;;
23804;SDS011;12083;52.098;7.582;2022-08-19T03:28:13;14.00;;;11.90;;
23804;SDS011;12083;52.098;7.582;2022-08-19T03:30:40;16.53;;;11.40;;
23804;SDS011;12083;52.098;7.582;2022-08-19T03:33:08;12.47;;;11.17;;
23804;SDS011;12083;52.098;7.582;2022-08-19T03:35:34;14.40;;;11.53;;
23804;SDS011;12083;52.098;7.582;2022-08-19T03:38:02;12.13;;;9.90;;
23804;SDS011;12083;52.098;7.582;2022-08-19T03:40:29;17.37;;;11.10;;
23804;SDS011;12083;52.098;7.582;2022-08-19T03:42:56;13.40;;;11.13;;
23804;SDS011;12083;52.098;7.582;2022-08-19T03:45:22;17.63;;;10.83;;
23804;SDS011;12083;52.098;7.582;2022-08-19T03:47:48;18.40;;;11.57;;
23804;SDS011;12083;52.098;7.582;2022-08-19T03:50:14;14.63;;;10.83;;
23804;SDS011;12083;52.098;7.582;2022-08-19T03:52:40;14.73;;;11.77;;
23804;SDS011;12083;52.098;7.582;2022-08-19T03:55:05;12.77;;;10.90;;
23804;SDS011;12083;52.098;7.582;2022-08-19T03:57:32;15.90;;;11.10;;
23804;SDS011;12083;52.098;7.582;2022-08-19T03:59:59;15.33;;;11.83;;
23804;SDS011;12083;52.098;7.582;2022-08-19T04:02:25;14.10;;;11.07;;
23804;SDS011;12083;52.098;7.582;2022-08-19T04:04:52;13.47;;;9.33;;
23804;SDS011;12083;52.098;7.582;2022-08-19T04:07:20;10.40;;;9.30;;
23804;SDS011;12083;52.098;7.582;2022-08-19T04:09:47;13.13;;;9.93;;
23804;SDS011;12083;52.098;7.582;2022-08-19T04:12:13;15.20;;;9.10;;
23804;SDS011;12083;52.098;7.582;2022-08-19T04:14:40;10.90;;;9.20;;
23804;SDS011;12083;52.098;7.582;2022-08-19T05:01:04;14.67;;;9.83;;
23804;SDS011;12083;52.098;7.582;2022-08-19T05:03:30;15.80;;;10.87;;
23804;SDS011;12083;52.098;7.582;2022-08-19T05:05:58;18.40;;;10.50;;
23804;SDS011;12083;52.098;7.582;2022-08-19T05:08:29;15.97;;;11.20;;
23804;SDS011;12083;52.098;7.582;2022-08-19T05:10:56;21.07;;;13.10;;
23804;SDS011;12083;52.098;7.582;2022-08-19T05:13:22;14.90;;;11.60;;
23804;SDS011;12083;52.098;7.582;2022-08-19T05:15:57;17.87;;;12.93;;
23804;SDS011;12083;52.098;7.582;2022-08-19T05:18:24;15.10;;;11.23;;
23804;SDS011;12083;52.098;7.582;2022-08-19T05:21:08;19.17;;;12.03;;
23804;SDS011;12083;52.098;7.582;2022-08-19T05:23:55;15.90;;;10.90;;
23804;SDS011;12083;52.098;7.582;2022-08-19T05:26:20;15.20;;;11.47;;
23804;SDS011;12083;52.098;7.582;2022-08-19T05:28:46;19.53;;;12.07;;
23804;SDS011;12083;52.098;7.582;2022-08-19T05:31:12;20.13;;;13.07;;
23804;SDS011;12083;52.098;7.582;2022-08-19T05:33:38;16.53;;;12.90;;
23804;SDS011;12083;52.098;7.582;2022-08-19T05:36:05;14.47;;;12.57;;
23804;SDS011;12083;52.098;7.582;2022-08-19T05:38:32;17.23;;;13.33;;
23804;SDS011;12083;52.098;7.582;2022-08-19T05:41:05;16.10;;;13.20;;
23804;SDS011;12083;52.098;7.582;2022-08-19T05:43:34;21.10;;;15.10;;
23804;SDS011;12083;52.098;7.582;2022-08-19T05:46:00;16.77;;;13.50;;
23804;SDS011;12083;52.098;7.582;2022-08-19T05:48:26;18.77;;;13.83;;
23804;SDS011;12083;52.098;7.582;2022-08-19T05:50:52;15.77;;;13.97;;
23804;SDS011;12083;52.098;7.582;2022-08-19T05:53:18;20.57;;;16.30;;
23804;SDS011;12083;52.098;7.582;2022-08-19T05:55:43;20.30;;;14.63;;
23804;SDS011;12083;52.098;7.582;2022-08-19T05:58:09;21.00;;;15.93;;
23804;SDS011;12083;52.098;7.582;2022-08-19T06:00:36;32.50;;;18.00;;
23804;SDS011;12083;52.098;7.582;2022-08-19T06:03:02;25.10;;;16.87;;
23804;SDS011;12083;52.098;7.582;2022-08-19T06:05:31;32.47;;;17.20;;
23804;SDS011;12083;52.098;7.582;2022-08-19T06:07:57;29.10;;;18.30;;
23804;SDS011;12083;52.098;7.582;2022-08-19T06:10:23;25.83;;;18.27;;
23804;SDS011;12083;52.098;7.582;2022-08-19T06:12:50;22.87;;;16.93;;
23804;SDS011;12083;52.098;7.582;2022-08-19T06:15:15;20.20;;;16.73;;
23804;SDS011;12083;52.098;7.582;2022-08-19T06:17:42;25.80;;;17.70;;
23804;SDS011;12083;52.098;7.582;2022-08-19T06:20:11;22.17;;;17.80;;
23804;SDS011;12083;52.098;7.582;2022-08-19T06:22:40;32.60;;;16.73;;
23804;SDS011;12083;52.098;7.582;2022-08-19T06:25:07;20.43;;;16.57;;
23804;SDS011;12083;52.098;7.582;2022-08-19T06:27:34;22.07;;;15.97;;
23804;SDS011;12083;52.098;7.582;2022-08-19T06:30:01;19.43;;;13.80;;
23804;SDS011;12083;52.098;7.582;2022-08-19T06:32:28;24.30;;;14.80;;
23804;SDS011;12083;52.098;7.582;2022-08-19T06:34:53;16.90;;;13.50;;
23804;SDS011;12083;52.098;7.582;2022-08-19T06:37:20;15.67;;;13.13;;
23804;SDS011;12083;52.098;7.582;2022-08-19T06:39:46;17.13;;;13.43;;
23804;SDS011;12083;52.098;7.582;2022-08-19T06:42:12;14.73;;;12.27;;
23804;SDS011;12083;52.098;7.582;2022-08-19T06:44:42;13.27;;;11.10;;
23804;SDS011;12083;52.098;7.582;2022-08-19T06:47:09;17.13;;;12.83;;
23804;SDS011;12083;52.098;7.582;2022-08-19T06:49:37;14.60;;;10.17;;
23804;SDS011;12083;52.098;7.582;2022-08-19T06:52:03;11.70;;;9.67;;
23804;SDS011;12083;52.098;7.582;2022-08-19T06:54:29;13.53;;;9.63;;
23804;SDS011;12083;52.098;7.582;2022-08-19T06:56:56;13.60;;;10.05;;
23804;SDS011;12083;52.098;7.582;2022-08-19T06:59:24;13.18;;;10.15;;
23804;SDS011;12083;52.098;7.582;2022-08-19T07:01:53;15.55;;;9.07;;
23804;SDS011;12083;52.098;7.582;2022-08-19T07:04:22;12.13;;;10.25;;
23804;SDS011;12083;52.098;7.582;2022-08-19T07:06:50;11.50;;;9.65;;
23804;SDS011;12083;52.098;7.582;2022-08-19T07:09:21;16.73;;;9.05;;
23804;SDS011;12083;52.098;7.582;2022-08-19T07:11:48;11.30;;;9.57;;
23804;SDS011;12083;52.098;7.582;2022-08-19T07:14:15;16.98;;;10.95;;
23804;SDS011;12083;52.098;7.582;2022-08-19T07:16:44;13.70;;;9.57;;
23804;SDS011;12083;52.098;7.582;2022-08-19T07:19:11;14.05;;;9.30;;
23804;SDS011;12083;52.098;7.582;2022-08-19T07:21:37;12.27;;;8.55;;
23804;SDS011;12083;52.098;7.582;2022-08-19T07:24:03;8.98;;;8.07;;
23804;SDS011;12083;52.098;7.582;2022-08-19T07:26:30;10.07;;;7.97;;
23804;SDS011;12083;52.098;7.582;2022-08-19T07:28:58;9.60;;;8.63;;
23804;SDS011;12083;52.098;7.582;2022-08-19T07:31:26;8.60;;;7.38;;
23804;SDS011;12083;52.098;7.582;2022-08-19T07:33:53;11.93;;;7.47;;
23804;SDS011;12083;52.098;7.582;2022-08-19T07:36:23;12.55;;;9.00;;
23804;SDS011;12083;52.098;7.582;2022-08-19T07:38:51;8.75;;;7.65;;
23804;SDS011;12083;52.098;7.582;2022-08-19T07:41:18;13.75;;;8.60;;
23804;SDS011;12083;52.098;7.582;2022-08-19T07:43:47;13.27;;;8.40;;
23804;SDS011;12083;52.098;7.582;2022-08-19T07:46:13;11.63;;;7.93;;
23804;SDS011;12083;52.098;7.582;2022-08-19T07:48:41;12.77;;;8.07;;
23804;SDS011;12083;52.098;7.582;2022-08-19T07:51:08;15.55;;;7.70;;
23804;SDS011;12083;52.098;7.582;2022-08-19T07:53:35;14.18;;;7.30;;
23804;SDS011;12083;52.098;7.582;2022-08-19T07:56:02;10.02;;;7.05;;
23804;SDS011;12083;52.098;7.582;2022-08-19T07:58:33;9.68;;;6.00;;
23804;SDS011;12083;52.098;7.582;2022-08-19T08:01:00;13.57;;;5.75;;
23804;SDS011;12083;52.098;7.582;2022-08-19T08:03:28;10.85;;;6.13;;
23804;SDS011;12083;52.098;7.582;2022-08-19T08:06:13;9.33;;;6.20;;
23804;SDS011;12083;52.098;7.582;2022-08-19T08:08:59;7.50;;;5.63;;
23804;SDS011;12083;52.098;7.582;2022-08-19T08:12:12;8.53;;;5.03;;
23804;SDS011;12083;52.098;7.582;2022-08-19T08:14:33;5.93;;;4.70;;
23804;SDS011;12083;52.098;7.582;2022-08-19T08:17:06;11.50;;;6.30;;
23804;SDS011;12083;52.098;7.582;2022-08-19T08:19:32;10.07;;;6.33;;
23804;SDS011;12083;52.098;7.582;2022-08-19T08:21:58;8.80;;;5.90;;
23804;SDS011;12083;52.098;7.582;2022-08-19T08:24:26;9.13;;;5.47;;
23804;SDS011;12083;52.098;7.582;2022-08-19T08:26:54;8.67;;;5.40;;
23804;SDS011;12083;52.098;7.582;2022-08-19T08:29:19;11.30;;;6.30;;
23804;SDS011;12083;52.098;7.582;2022-08-19T08:31:45;5.77;;;5.17;;
23804;SDS011;12083;52.098;7.582;2022-08-19T08:34:12;7.13;;;5.00;;
23804;SDS011;12083;52.098;7.582;2022-08-19T08:36:40;5.07;;;4.60;;
23804;SDS011;12083;52.098;7.582;2022-08-19T08:39:14;5.90;;;4.20;;
23804;SDS011;12083;52.098;7.582;2022-08-19T08:44:42;7.43;;;4.70;;
23804;SDS011;12083;52.098;7.582;2022-08-19T08:47:17;5.30;;;4.23;;
23804;SDS011;12083;52.098;7.582;2022-08-19T08:49:56;8.03;;;3.83;;
23804;SDS011;12083;52.098;7.582;2022-08-19T08:52:27;5.23;;;3.87;;
23804;SDS011;12083;52.098;7.582;2022-08-19T08:54:57;3.73;;;3.40;;
23804;SDS011;12083;52.098;7.582;2022-08-19T08:57:32;5.63;;;3.47;;
23804;SDS011;12083;52.098;7.582;2022-08-19T09:00:05;3.97;;;3.30;;
23804;SDS011;12083;52.098;7.582;2022-08-19T09:02:38;4.67;;;3.60;;
23804;SDS011;12083;52.098;7.582;2022-08-19T09:05:03;10.10;;;4.17;;
23804;SDS011;12083;52.098;7.582;2022-08-19T09:10:25;5.53;;;3.17;;
23804;SDS011;12083;52.098;7.582;2022-08-19T09:13:18;5.40;;;3.73;;
23804;SDS011;12083;52.098;7.582;2022-08-19T09:15:59;7.60;;;4.23;;
23804;SDS011;12083;52.098;7.582;2022-08-19T09:18:45;5.60;;;4.20;;
23804;SDS011;12083;52.098;7.582;2022-08-19T09:21:14;4.07;;;3.70;;
23804;SDS011;12083;52.098;7.582;2022-08-19T09:23:40;6.43;;;4.00;;
23804;SDS011;12083;52.098;7.582;2022-08-19T09:26:11;7.67;;;4.10;;
23804;SDS011;12083;52.098;7.582;2022-08-19T09:28:40;5.03;;;4.33;;
23804;SDS011;12083;52.098;7.582;2022-08-19T09:31:12;4.23;;;3.83;;
23804;SDS011;12083;52.098;7.582;2022-08-19T09:33:39;5.07;;;3.10;;
23804;SDS011;12083;52.098;7.582;2022-08-19T09:36:08;5.40;;;3.80;;
23804;SDS011;12083;52.098;7.582;2022-08-19T09:38:36;11.57;;;3.60;;
23804;SDS011;12083;52.098;7.582;2022-08-19T09:41:10;4.90;;;3.70;;
23804;SDS011;12083;52.098;7.582;2022-08-19T09:43:39;7.50;;;4.10;;
23804;SDS011;12083;52.098;7.582;2022-08-19T09:46:06;6.53;;;3.47;;
23804;SDS011;12083;52.098;7.582;2022-08-19T09:48:37;3.07;;;2.87;;
23804;SDS011;12083;52.098;7.582;2022-08-19T09:51:07;3.80;;;3.50;;
23804;SDS011;12083;52.098;7.582;2022-08-19T09:53:35;7.40;;;4.20;;
23804;SDS011;12083;52.098;7.582;2022-08-19T09:56:01;3.23;;;2.93;;
23804;SDS011;12083;52.098;7.582;2022-08-19T09:58:28;5.43;;;4.20;;
23804;SDS011;12083;52.098;7.582;2022-08-19T10:00:55;6.40;;;4.07;;
23804;SDS011;12083;52.098;7.582;2022-08-19T10:03:22;3.33;;;2.20;;
23804;SDS011;12083;52.098;7.582;2022-08-19T10:05:48;2.67;;;2.47;;
23804;SDS011;12083;52.098;7.582;2022-08-19T10:08:16;3.80;;;2.90;;
23804;SDS011;12083;52.098;7.582;2022-08-19T10:10:43;2.70;;;2.30;;
23804;SDS011;12083;52.098;7.582;2022-08-19T10:13:09;5.10;;;2.73;;
23804;SDS011;12083;52.098;7.582;2022-08-19T10:15:35;6.93;;;2.97;;
23804;SDS011;12083;52.098;7.582;2022-08-19T10:18:01;2.20;;;2.10;;
23804;SDS011;12083;52.098;7.582;2022-08-19T10:20:26;3.17;;;2.93;;
23804;SDS011;12083;52.098;7.582;2022-08-19T10:22:52;6.20;;;3.03;;
23804;SDS011;12083;52.098;7.582;2022-08-19T10:25:18;3.70;;;3.33;;
23804;SDS011;12083;52.098;7.582;2022-08-19T10:27:43;4.47;;;3.67;;
23804;SDS011;12083;52.098;7.582;2022-08-19T10:30:09;9.10;;;3.50;;
23804;SDS011;12083;52.098;7.582;2022-08-19T10:32:35;4.87;;;2.73;;
23804;SDS011;12083;52.098;7.582;2022-08-19T10:35:01;5.53;;;3.43;;
23804;SDS011;12083;52.098;7.582;2022-08-19T10:37:31;6.23;;;3.50;;
23804;SDS011;12083;52.098;7.582;2022-08-19T10:39:58;5.50;;;4.20;;
23804;SDS011;12083;52.098;7.582;2022-08-19T10:42:23;4.70;;;2.97;;
23804;SDS011;12083;52.098;7.582;2022-08-19T10:44:49;5.20;;;2.97;;
23804;SDS011;12083;52.098;7.582;2022-08-19T10:47:15;6.17;;;3.00;;
23804;SDS011;12083;52.098;7.582;2022-08-19T10:49:41;2.97;;;2.60;;
23804;SDS011;12083;52.098;7.582;2022-08-19T10:52:25;4.90;;;2.37;;
23804;SDS011;12083;52.098;7.582;2022-08-19T10:55:00;3.80;;;2.10;;
23804;SDS011;12083;52.098;7.582;2022-08-19T10:57:45;5.87;;;2.37;;
23804;SDS011;12083;52.098;7.582;2022-08-19T11:00:11;3.10;;;2.80;;
23804;SDS011;12083;52.098;7.582;2022-08-19T11:02:38;4.00;;;1.90;;
23804;SDS011;12083;52.098;7.582;2022-08-19T11:05:04;2.03;;;1.83;;
23804;SDS011;12083;52.098;7.582;2022-08-19T11:07:32;3.43;;;2.40;;
23804;SDS011;12083;52.098;7.582;2022-08-19T11:09:58;5.13;;;2.30;;
23804;SDS011;12083;52.098;7.582;2022-08-19T11:12:24;4.40;;;2.35;;
23804;SDS011;12083;52.098;7.582;2022-08-19T11:14:49;3.10;;;2.47;;
23804;SDS011;12083;52.098;7.582;2022-08-19T11:17:15;5.40;;;2.90;;
23804;SDS011;12083;52.098;7.582;2022-08-19T11:19:41;3.90;;;2.65;;
23804;SDS011;12083;52.098;7.582;2022-08-19T11:22:10;9.88;;;2.88;;
23804;SDS011;12083;52.098;7.582;2022-08-19T11:24:35;3.08;;;2.13;;
23804;SDS011;12083;52.098;7.582;2022-08-19T11:27:06;2.85;;;2.65;;
23804;SDS011;12083;52.098;7.582;2022-08-19T11:29:34;3.05;;;2.10;;
23804;SDS011;12083;52.098;7.582;2022-08-19T11:32:04;2.67;;;2.47;;
23804;SDS011;12083;52.098;7.582;2022-08-19T11:34:32;7.47;;;2.65;;
23804;SDS011;12083;52.098;7.582;2022-08-19T11:36:58;2.17;;;2.00;;
23804;SDS011;12083;52.098;7.582;2022-08-19T11:39:25;2.58;;;2.38;;
23804;SDS011;12083;52.098;7.582;2022-08-19T11:41:53;3.28;;;2.53;;
23804;SDS011;12083;52.098;7.582;2022-08-19T11:44:18;3.58;;;3.25;;
23804;SDS011;12083;52.098;7.582;2022-08-19T11:46:44;3.65;;;2.95;;
23804;SDS011;12083;52.098;7.582;2022-08-19T11:49:12;4.53;;;2.67;;
23804;SDS011;12083;52.098;7.582;2022-08-19T11:51:39;4.78;;;3.20;;
23804;SDS011;12083;52.098;7.582;2022-08-19T11:54:07;6.30;;;2.67;;
23804;SDS011;12083;52.098;7.582;2022-08-19T11:56:36;3.30;;;2.90;;
23804;SDS011;12083;52.098;7.582;2022-08-19T11:59:02;4.18;;;3.10;;
23804;SDS011;12083;52.098;7.582;2022-08-19T12:01:28;3.28;;;2.97;;
23804;SDS011;12083;52.098;7.582;2022-08-19T12:03:55;5.90;;;2.95;;
23804;SDS011;12083;52.098;7.582;2022-08-19T12:06:24;3.92;;;3.22;;
23804;SDS011;12083;52.098;7.582;2022-08-19T12:08:58;3.13;;;2.80;;
23804;SDS011;12083;52.098;7.582;2022-08-19T12:11:25;3.92;;;2.70;;
23804;SDS011;12083;52.098;7.582;2022-08-19T12:13:52;7.63;;;3.85;;
23804;SDS011;12083;52.098;7.582;2022-08-19T12:16:22;6.07;;;4.03;;
23804;SDS011;12083;52.098;7.582;2022-08-19T12:18:52;5.70;;;3.05;;
23804;SDS011;12083;52.098;7.582;2022-08-19T12:21:20;4.53;;;4.00;;
23804;SDS011;12083;52.098;7.582;2022-08-19T12:23:53;5.32;;;4.82;;
23804;SDS011;12083;52.098;7.582;2022-08-19T12:26:20;13.15;;;5.40;;
23804;SDS011;12083;52.098;7.582;2022-08-19T12:28:46;6.15;;;5.22;;
23804;SDS011;12083;52.098;7.582;2022-08-19T12:31:13;5.47;;;4.93;;
23804;SDS011;12083;52.098;7.582;2022-08-19T12:33:40;23.13;;;5.40;;
23804;SDS011;12083;52.098;7.582;2022-08-19T12:36:08;6.45;;;5.18;;
23804;SDS011;12083;52.098;7.582;2022-08-19T12:38:35;16.75;;;5.72;;
23804;SDS011;12083;52.098;7.582;2022-08-19T12:41:01;5.57;;;5.13;;
23804;SDS011;12083;52.098;7.582;2022-08-19T12:43:32;7.60;;;4.15;;
23804;SDS011;12083;52.098;7.582;2022-08-19T12:45:59;21.80;;;4.75;;
23804;SDS011;12083;52.098;7.582;2022-08-19T12:48:25;4.32;;;3.63;;
23804;SDS011;12083;52.098;7.582;2022-08-19T12:50:51;5.18;;;4.50;;
23804;SDS011;12083;52.098;7.582;2022-08-19T12:53:16;6.38;;;3.97;;
23804;SDS011;12083;52.098;7.582;2022-08-19T12:55:42;9.73;;;4.78;;
23804;SDS011;12083;52.098;7.582;2022-08-19T12:58:08;6.25;;;3.90;;
23804;SDS011;12083;52.098;7.582;2022-08-19T13:00:35;4.22;;;2.97;;
23804;SDS011;12083;52.098;7.582;2022-08-19T13:03:01;9.10;;;3.80;;
23804;SDS011;12083;52.098;7.582;2022-08-19T13:05:29;4.70;;;4.20;;
23804;SDS011;12083;52.098;7.582;2022-08-19T13:07:58;7.68;;;4.05;;
23804;SDS011;12083;52.098;7.582;2022-08-19T13:10:27;3.13;;;2.97;;
23804;SDS011;12083;52.098;7.582;2022-08-19T13:13:00;7.30;;;4.20;;
23804;SDS011;12083;52.098;7.582;2022-08-19T13:15:27;7.18;;;4.03;;
23804;SDS011;12083;52.098;7.582;2022-08-19T13:17:56;6.75;;;4.47;;
23804;SDS011;12083;52.098;7.582;2022-08-19T13:20:23;9.77;;;3.63;;
23804;SDS011;12083;52.098;7.582;2022-08-19T13:22:49;8.18;;;3.97;;
23804;SDS011;12083;52.098;7.582;2022-08-19T13:25:15;8.02;;;4.22;;
23804;SDS011;12083;52.098;7.582;2022-08-19T13:27:42;11.55;;;5.95;;
23804;SDS011;12083;52.098;7.582;2022-08-19T13:30:10;6.88;;;4.90;;
23804;SDS011;12083;52.098;7.582;2022-08-19T13:32:55;16.42;;;6.20;;
23804;SDS011;12083;52.098;7.582;2022-08-19T13:36:09;12.80;;;5.05;;
23804;SDS011;12083;52.098;7.582;2022-08-19T13:38:31;11.60;;;5.57;;
23804;SDS011;12083;52.098;7.582;2022-08-19T13:40:57;7.97;;;5.80;;
23804;SDS011;12083;52.098;7.582;2022-08-19T13:43:30;6.60;;;5.50;;
23804;SDS011;12083;52.098;7.582;2022-08-19T13:45:56;10.25;;;6.65;;
23804;SDS011;12083;52.098;7.582;2022-08-19T13:48:22;6.38;;;5.82;;
23804;SDS011;12083;52.098;7.582;2022-08-19T13:50:50;10.35;;;5.60;;
23804;SDS011;12083;52.098;7.582;2022-08-19T13:53:15;10.00;;;4.70;;
23804;SDS011;12083;52.098;7.582;2022-08-19T13:55:42;7.20;;;5.53;;
23804;SDS011;12083;52.098;7.582;2022-08-19T13:58:09;6.90;;;6.20;;
23804;SDS011;12083;52.098;7.582;2022-08-19T14:00:37;8.50;;;6.77;;
23804;SDS011;12083;52.098;7.582;2022-08-19T14:03:07;5.83;;;5.27;;
23804;SDS011;12083;52.098;7.582;2022-08-19T14:05:33;7.30;;;4.67;;
23804;SDS011;12083;52.098;7.582;2022-08-19T14:07:59;11.27;;;6.73;;
23804;SDS011;12083;52.098;7.582;2022-08-19T14:10:25;7.83;;;7.10;;
23804;SDS011;12083;52.098;7.582;2022-08-19T14:12:52;10.93;;;6.70;;
23804;SDS011;12083;52.098;7.582;2022-08-19T14:15:20;7.77;;;6.23;;
23804;SDS011;12083;52.098;7.582;2022-08-19T14:17:46;11.83;;;6.73;;
23804;SDS011;12083;52.098;7.582;2022-08-19T14:20:13;8.60;;;6.60;;
23804;SDS011;12083;52.098;7.582;2022-08-19T14:22:40;9.27;;;7.53;;
23804;SDS011;12083;52.098;7.582;2022-08-19T14:25:07;13.37;;;7.40;;
23804;SDS011;12083;52.098;7.582;2022-08-19T14:27:36;18.83;;;7.43;;
23804;SDS011;12083;52.098;7.582;2022-08-19T14:30:07;32.83;;;8.00;;
23804;SDS011;12083;52.098;7.582;2022-08-19T14:32:35;17.33;;;7.93;;
23804;SDS011;12083;52.098;7.582;2022-08-19T14:35:01;13.53;;;7.77;;
23804;SDS011;12083;52.098;7.582;2022-08-19T14:37:27;14.70;;;8.90;;
23804;SDS011;12083;52.098;7.582;2022-08-19T14:39:53;10.23;;;7.67;;
23804;SDS011;12083;52.098;7.582;2022-08-19T14:42:18;13.50;;;8.00;;
23804;SDS011;12083;52.098;7.582;2022-08-19T14:44:44;9.73;;;7.70;;
23804;SDS011;12083;52.098;7.582;2022-08-19T14:47:10;19.60;;;8.70;;
23804;SDS011;12083;52.098;7.582;2022-08-19T14:49:36;7.17;;;6.47;;
23804;SDS011;12083;52.098;7.582;2022-08-19T14:52:04;8.23;;;7.40;;
23804;SDS011;12083;52.098;7.582;2022-08-19T14:54:30;10.40;;;7.17;;
23804;SDS011;12083;52.098;7.582;2022-08-19T14:56:56;17.87;;;7.33;;
23804;SDS011;12083;52.098;7.582;2022-08-19T14:59:22;7.97;;;6.40;;
23804;SDS011;12083;52.098;7.582;2022-08-19T15:01:48;7.97;;;5.10;;
23804;SDS011;12083;52.098;7.582;2022-08-19T15:04:13;9.30;;;6.00;;
23804;SDS011;12083;52.098;7.582;2022-08-19T15:06:39;6.90;;;5.40;;
23804;SDS011;12083;52.098;7.582;2022-08-19T15:09:05;17.00;;;6.00;;
23804;SDS011;12083;52.098;7.582;2022-08-19T15:11:31;10.60;;;5.30;;
23804;SDS011;12083;52.098;7.582;2022-08-19T15:13:58;7.60;;;5.40;;
23804;SDS011;12083;52.098;7.582;2022-08-19T15:16:24;7.57;;;4.97;;
23804;SDS011;12083;52.098;7.582;2022-08-19T15:18:52;10.60;;;5.93;;
23804;SDS011;12083;52.098;7.582;2022-08-19T15:21:19;7.63;;;5.07;;
23804;SDS011;12083;52.098;7.582;2022-08-19T15:23:46;6.63;;;5.90;;
23804;SDS011;12083;52.098;7.582;2022-08-19T15:26:14;9.00;;;5.40;;
23804;SDS011;12083;52.098;7.582;2022-08-19T15:28:41;9.80;;;5.40;;
23804;SDS011;12083;52.098;7.582;2022-08-19T15:31:07;6.33;;;5.47;;
23804;SDS011;12083;52.098;7.582;2022-08-19T15:33:34;6.40;;;5.50;;
23804;SDS011;12083;52.098;7.582;2022-08-19T15:36:03;5.90;;;5.30;;